Terminal Aerodrome Forecast
Issued by NWS Goodland, KS

Home | Current Version | Previous Version | Text Only | Print | Product List | Glossary On
Versions: 1 2 3 4 5 6 7 8 9 10 11 12 13 14 15 16 17 18 19 20 21 22 23 24 25 26
000
FTUS43 KGLD 182329
TAFGLD
TAF
KGLD 182329Z 1900/1924 23014KT P6SM FEW250
     FM190300 29014KT P6SM SCT250
     FM190400 34015G23KT P6SM SCT140
     FM190500 01015G23KT P6SM SCT120
     FM190700 02013KT P6SM BKN020
     FM190800 02013KT P6SM BKN015
     FM191800 04011KT P6SM BKN045
     FM192000 07012KT P6SM BKN150=

USA.gov is the U.S. government's official web portal to all federal, state and local government web resources and services.